createdAt,value
2018-04-15T00:00:19.469Z,40.03
2018-04-15T00:02:47.599Z,39.90
2018-04-15T00:05:15.761Z,39.65
2018-04-15T00:07:43.907Z,40.65
2018-04-15T00:10:12.075Z,40.60
2018-04-15T00:12:40.211Z,39.28
2018-04-15T00:15:08.367Z,42.58
2018-04-15T00:17:36.520Z,41.80
2018-04-15T00:20:04.660Z,40.97
2018-04-15T00:22:32.818Z,40.17
2018-04-15T00:25:00.952Z,39.88
2018-04-15T00:27:29.114Z,39.63
2018-04-15T00:29:57.243Z,39.70
2018-04-15T00:32:26.172Z,39.85
2018-04-15T00:34:54.304Z,38.10
2018-04-15T00:39:56.864Z,38.75
2018-04-15T00:42:25.028Z,41.30
2018-04-15T00:44:53.166Z,40.72
2018-04-15T00:47:21.321Z,38.90
2018-04-15T00:49:49.456Z,41.67
2018-04-15T00:52:17.616Z,39.78
2018-04-15T00:54:45.746Z,39.45
2018-04-15T00:57:13.905Z,42.78
2018-04-15T00:59:42.038Z,40.25
2018-04-15T01:02:10.225Z,41.15
2018-04-15T01:04:38.344Z,40.17
2018-04-15T01:07:06.499Z,41.20
2018-04-15T01:09:34.643Z,41.37
2018-04-15T01:12:02.808Z,41.15
2018-04-15T01:14:30.940Z,41.47
2018-04-15T01:16:59.095Z,40.00
2018-04-15T01:19:27.219Z,43.13
2018-04-15T01:21:55.372Z,43.08
2018-04-15T01:24:23.508Z,42.30
2018-04-15T01:26:51.664Z,43.10
2018-04-15T01:29:20.555Z,41.05
2018-04-15T01:31:48.716Z,40.15
2018-04-15T01:34:16.844Z,42.67
2018-04-15T01:36:45.007Z,44.35
2018-04-15T01:39:13.144Z,42.35
2018-04-15T01:41:41.315Z,43.30
2018-04-15T01:44:09.447Z,42.58
2018-04-15T01:46:37.581Z,44.83
2018-04-15T01:49:05.741Z,46.80
2018-04-15T01:51:33.882Z,43.15
2018-04-15T01:54:02.044Z,44.65
2018-04-15T01:56:30.185Z,41.10
2018-04-15T01:58:58.344Z,42.38
2018-04-15T02:01:26.481Z,44.47
2018-04-15T02:03:54.642Z,45.70
2018-04-15T02:06:22.780Z,47.50
2018-04-15T02:08:50.940Z,44.95
2018-04-15T02:11:19.072Z,48.45
2018-04-15T02:13:47.228Z,45.78
2018-04-15T02:16:15.360Z,47.28
2018-04-15T02:18:43.512Z,47.17
2018-04-15T02:21:11.656Z,52.13
2018-04-15T02:23:39.821Z,50.03
2018-04-15T02:26:07.980Z,50.60
2018-04-15T02:28:36.123Z,52.33
2018-04-15T02:31:04.283Z,49.35
2018-04-15T02:36:06.802Z,45.70
2018-04-15T02:38:34.933Z,42.55
2018-04-15T02:41:03.113Z,39.92
2018-04-15T02:43:31.248Z,39.25
2018-04-15T02:45:59.419Z,37.85
2018-04-15T02:48:27.554Z,36.00
2018-04-15T02:50:56.472Z,39.50
2018-04-15T02:53:24.613Z,42.03
2018-04-15T02:55:52.778Z,38.63
2018-04-15T02:58:20.913Z,41.05
2018-04-15T03:00:49.081Z,36.65
2018-04-15T03:03:17.220Z,35.92
2018-04-15T03:05:46.152Z,34.13
2018-04-15T03:08:14.296Z,34.67
2018-04-15T03:10:42.457Z,37.25
2018-04-15T03:13:10.599Z,40.78
2018-04-15T03:15:38.760Z,43.22
2018-04-15T03:18:06.895Z,43.67
2018-04-15T03:20:35.061Z,38.50
2018-04-15T03:23:03.209Z,37.10
2018-04-15T03:25:31.367Z,60.75
2018-04-15T03:27:59.522Z,38.88
2018-04-15T03:30:27.681Z,36.80
2018-04-15T03:32:55.818Z,42.08
2018-04-15T03:35:23.979Z,32.10
2018-04-15T03:37:52.887Z,42.65
2018-04-15T03:40:21.049Z,35.92
2018-04-15T03:42:49.957Z,33.80
2018-04-15T03:45:18.117Z,36.92
2018-04-15T03:47:47.016Z,34.65
2018-04-15T03:50:15.176Z,35.22
2018-04-15T03:52:44.077Z,38.58
2018-04-15T03:55:13.023Z,37.60
2018-04-15T03:57:41.159Z,34.88
2018-04-15T04:00:09.316Z,40.45
2018-04-15T04:02:38.216Z,39.55
2018-04-15T04:05:06.372Z,38.60
2018-04-15T04:07:35.269Z,37.85
2018-04-15T04:10:03.432Z,41.40
2018-04-15T04:12:31.567Z,43.28
2018-04-15T04:14:59.729Z,44.47
2018-04-15T04:17:39.663Z,40.88
2018-04-15T04:20:19.488Z,42.42
2018-04-15T04:23:00.168Z,51.17
2018-04-15T04:25:40.084Z,59.17
2018-04-15T04:28:08.223Z,48.75
2018-04-15T04:30:36.388Z,46.80
2018-04-15T04:33:04.525Z,42.58
2018-04-15T04:35:32.687Z,39.55
2018-04-15T04:38:00.819Z,39.13
2018-04-15T04:40:28.984Z,44.35
2018-04-15T04:42:57.111Z,37.65
2018-04-15T04:45:25.272Z,43.00
2018-04-15T04:47:53.404Z,42.17
2018-04-15T04:50:21.560Z,34.55
2018-04-15T04:52:49.702Z,42.72
2018-04-15T04:55:17.866Z,35.53
2018-04-15T04:57:45.996Z,38.90
2018-04-15T05:00:14.155Z,32.70
2018-04-15T05:02:42.289Z,38.85
2018-04-15T05:05:10.444Z,37.30
2018-04-15T05:07:38.590Z,31.50
2018-04-15T05:10:06.748Z,35.78
2018-04-15T05:12:34.876Z,36.90
2018-04-15T05:15:03.049Z,37.05
2018-04-15T05:17:31.176Z,36.33
2018-04-15T05:19:59.328Z,39.72
2018-04-15T05:22:27.463Z,40.45
2018-04-15T05:24:55.623Z,40.92
2018-04-15T05:27:23.788Z,41.53
2018-04-15T05:29:51.917Z,40.40
2018-04-15T05:32:20.134Z,40.30
2018-04-15T05:34:48.243Z,41.28
2018-04-15T05:37:17.189Z,39.00
2018-04-15T05:39:45.319Z,38.80
2018-04-15T05:42:14.252Z,39.53
2018-04-15T05:44:42.393Z,41.17
2018-04-15T05:47:11.315Z,42.38
2018-04-15T05:49:39.461Z,38.05
2018-04-15T05:52:08.389Z,39.90
2018-04-15T05:54:36.523Z,40.42
2018-04-15T05:57:05.449Z,43.15
2018-04-15T05:59:33.589Z,38.30
2018-04-15T06:02:01.777Z,41.95
2018-04-15T06:04:29.907Z,38.55
2018-04-15T06:06:58.074Z,37.58
2018-04-15T06:09:26.223Z,41.33
2018-04-15T06:11:54.385Z,40.28
2018-04-15T06:14:22.515Z,40.08
2018-04-15T06:16:50.675Z,38.90
2018-04-15T06:19:18.809Z,39.15
2018-04-15T06:21:46.964Z,42.22
2018-04-15T06:24:15.113Z,39.45
2018-04-15T06:26:43.280Z,39.80
2018-04-15T06:29:12.180Z,38.72
2018-04-15T06:31:40.345Z,36.22
2018-04-15T06:34:09.244Z,34.40
2018-04-15T06:36:37.461Z,35.70
2018-04-15T06:39:05.571Z,34.13
2018-04-15T06:41:33.740Z,34.10
2018-04-15T06:44:01.880Z,33.83
2018-04-15T06:46:30.044Z,34.05
2018-04-15T06:48:58.235Z,33.75
2018-04-15T06:51:26.399Z,30.88
2018-04-15T06:53:54.547Z,30.70
2018-04-15T06:56:22.785Z,34.10
2018-04-15T06:58:50.928Z,30.98
2018-04-15T07:01:19.117Z,32.55
2018-04-15T07:03:47.255Z,32.70
2018-04-15T07:06:15.427Z,32.95
2018-04-15T07:08:43.556Z,28.98
2018-04-15T07:11:11.719Z,32.33
2018-04-15T07:13:39.864Z,30.95
2018-04-15T07:16:08.103Z,32.90
2018-04-15T07:18:36.397Z,32.90
2018-04-15T07:21:04.586Z,34.78
2018-04-15T07:23:32.716Z,37.50
2018-04-15T07:26:00.874Z,32.53
2018-04-15T07:28:29.024Z,32.25
2018-04-15T07:30:57.207Z,30.60
2018-04-15T07:33:25.379Z,32.75
2018-04-15T07:35:53.576Z,33.58
2018-04-15T07:38:21.711Z,29.50
2018-04-15T07:40:49.923Z,34.35
2018-04-15T07:43:18.105Z,32.50
2018-04-15T07:45:46.252Z,35.20
2018-04-15T07:48:14.399Z,32.10
2018-04-15T07:50:42.555Z,32.90
2018-04-15T07:53:10.712Z,33.80
2018-04-15T07:55:39.774Z,32.70
2018-04-15T07:58:08.026Z,32.90
2018-04-15T08:00:36.626Z,32.95
2018-04-15T08:03:06.119Z,31.73
2018-04-15T08:05:34.783Z,32.25
2018-04-15T08:08:04.087Z,32.13
2018-04-15T08:10:32.643Z,32.10
2018-04-15T08:13:01.242Z,32.85
2018-04-15T08:15:29.563Z,32.95
2018-04-15T08:17:57.720Z,34.08
2018-04-15T08:20:25.974Z,31.87
2018-04-15T08:22:54.116Z,32.08
2018-04-15T08:25:22.247Z,35.15
2018-04-15T08:27:50.415Z,33.00
2018-04-15T08:30:18.573Z,34.58
2018-04-15T08:32:46.731Z,31.80
2018-04-15T08:35:14.891Z,32.45
2018-04-15T08:37:43.181Z,35.25
2018-04-15T08:40:11.434Z,34.00
2018-04-15T08:42:40.728Z,35.70
2018-04-15T08:45:09.153Z,29.58
2018-04-15T08:47:37.552Z,32.63
2018-04-15T08:50:05.749Z,32.55
2018-04-15T08:52:33.920Z,37.03
2018-04-15T08:55:02.064Z,33.38
2018-04-15T08:57:30.232Z,32.80
2018-04-15T08:59:58.372Z,31.87
2018-04-15T09:02:26.541Z,33.33
2018-04-15T09:04:55.445Z,33.72
2018-04-15T09:07:23.649Z,34.00
2018-04-15T09:09:51.801Z,33.67
2018-04-15T09:12:19.967Z,36.90
2018-04-15T09:14:48.155Z,33.40
2018-04-15T09:17:16.363Z,35.78
2018-04-15T09:19:44.480Z,33.22
2018-04-15T09:22:12.657Z,34.20
2018-04-15T09:24:41.585Z,32.42
2018-04-15T09:27:09.743Z,34.20
2018-04-15T09:29:37.910Z,32.38
2018-04-15T09:32:06.099Z,34.45
2018-04-15T09:34:34.252Z,33.65
2018-04-15T09:37:02.490Z,31.73
2018-04-15T09:39:30.628Z,35.17
2018-04-15T09:41:58.800Z,35.35
2018-04-15T09:44:26.949Z,34.67
2018-04-15T09:46:55.145Z,34.65
2018-04-15T09:49:23.312Z,35.85
2018-04-15T09:51:51.513Z,36.05
2018-04-15T09:54:19.648Z,35.30
2018-04-15T09:56:47.835Z,36.58
2018-04-15T09:59:16.015Z,32.35
2018-04-15T10:01:44.262Z,32.90
2018-04-15T10:04:12.421Z,32.50
2018-04-15T10:06:40.600Z,36.13
2018-04-15T10:09:08.752Z,34.35
2018-04-15T10:11:36.912Z,38.80
2018-04-15T10:14:05.079Z,35.42
2018-04-15T10:16:33.295Z,32.90
2018-04-15T10:19:02.204Z,33.95
2018-04-15T10:21:30.677Z,33.50
2018-04-15T10:23:59.637Z,33.33
2018-04-15T10:26:28.664Z,36.80
2018-04-15T10:28:56.799Z,35.63
2018-04-15T10:31:25.052Z,32.47
2018-04-15T10:33:54.023Z,35.80
2018-04-15T10:36:22.204Z,33.90
2018-04-15T10:38:50.376Z,35.95
2018-04-15T10:41:18.512Z,35.58
2018-04-15T10:43:46.766Z,32.42
2018-04-15T10:46:14.909Z,34.63
2018-04-15T10:48:43.093Z,38.10
2018-04-15T10:51:11.397Z,33.83
2018-04-15T10:53:39.576Z,33.80
2018-04-15T10:56:07.725Z,35.10
2018-04-15T10:58:35.984Z,36.60
2018-04-15T11:01:04.132Z,35.90
2018-04-15T11:03:32.314Z,37.35
2018-04-15T11:06:00.576Z,36.60
2018-04-15T11:08:29.522Z,33.72
2018-04-15T11:10:57.686Z,38.08
2018-04-15T11:13:25.868Z,36.55
2018-04-15T11:15:54.016Z,38.33
2018-04-15T11:18:22.187Z,37.30
2018-04-15T11:20:50.433Z,38.15
2018-04-15T11:23:18.623Z,34.25
2018-04-15T11:25:46.768Z,39.13
2018-04-15T11:28:14.958Z,33.15
2018-04-15T11:30:43.213Z,37.42
2018-04-15T11:33:11.385Z,39.92
2018-04-15T11:35:39.573Z,37.80
2018-04-15T11:38:08.530Z,37.03
2018-04-15T11:40:36.670Z,38.83
2018-04-15T11:43:04.844Z,38.28
2018-04-15T11:45:32.992Z,40.53
2018-04-15T11:48:01.164Z,36.78
2018-04-15T11:50:30.081Z,39.30
2018-04-15T11:52:58.245Z,39.78
2018-04-15T11:55:26.395Z,38.25
2018-04-15T11:57:55.353Z,42.25
2018-04-15T12:00:23.512Z,36.70
2018-04-15T12:02:51.683Z,40.15
2018-04-15T12:05:19.845Z,35.45
2018-04-15T12:07:48.043Z,38.33
2018-04-15T12:10:16.228Z,37.28
2018-04-15T12:12:44.419Z,38.38
2018-04-15T12:15:12.573Z,38.45
2018-04-15T12:17:41.382Z,38.13
2018-04-15T12:20:16.478Z,40.47
2018-04-15T12:22:44.668Z,38.05
2018-04-15T12:25:12.899Z,39.17
2018-04-15T12:27:41.097Z,38.13
2018-04-15T12:30:09.241Z,38.97
2018-04-15T12:32:38.168Z,39.75
2018-04-15T12:35:06.398Z,38.42
2018-04-15T12:37:34.516Z,41.20
2018-04-15T12:40:02.697Z,36.08
2018-04-15T12:42:30.838Z,36.60
2018-04-15T12:44:58.998Z,40.65
2018-04-15T12:47:27.157Z,39.03
2018-04-15T12:49:55.340Z,39.20
2018-04-15T12:52:23.480Z,42.42
2018-04-15T12:54:51.645Z,37.72
2018-04-15T12:57:19.778Z,34.80
2018-04-15T12:59:47.954Z,38.00
2018-04-15T13:02:16.694Z,36.80
2018-04-15T13:04:44.887Z,39.35
2018-04-15T13:07:13.795Z,36.92
2018-04-15T13:09:41.987Z,35.92
2018-04-15T13:12:10.123Z,38.63
2018-04-15T13:14:38.294Z,39.70
2018-04-15T13:17:06.443Z,36.90
2018-04-15T13:19:34.619Z,36.03
2018-04-15T13:22:02.760Z,37.90
2018-04-15T13:24:30.944Z,37.22
2018-04-15T13:26:59.080Z,37.75
2018-04-15T13:29:28.008Z,39.95
2018-04-15T13:31:56.149Z,35.60
2018-04-15T13:34:25.089Z,34.35
2018-04-15T13:36:53.225Z,35.80
2018-04-15T13:39:21.426Z,36.10
2018-04-15T13:41:49.564Z,37.38
2018-04-15T13:44:17.724Z,36.85
2018-04-15T13:46:46.631Z,36.50
2018-04-15T13:49:14.797Z,36.75
2018-04-15T13:51:43.697Z,35.88
2018-04-15T13:54:11.865Z,34.95
2018-04-15T13:56:40.773Z,34.80
2018-04-15T13:59:08.936Z,36.10
2018-04-15T14:01:37.087Z,35.80
2018-04-15T14:04:05.261Z,36.95
2018-04-15T14:06:33.403Z,34.30
2018-04-15T14:09:01.569Z,36.05
2018-04-15T14:11:29.716Z,38.83
2018-04-15T14:13:57.884Z,36.92
2018-04-15T14:16:26.032Z,38.25
2018-04-15T14:18:54.981Z,36.90
2018-04-15T14:21:23.128Z,34.97
2018-04-15T14:23:51.338Z,38.47
2018-04-15T14:26:19.483Z,35.20
2018-04-15T14:28:47.643Z,35.65
2018-04-15T14:31:15.814Z,35.92
2018-04-15T14:33:43.998Z,35.72
2018-04-15T14:36:12.171Z,35.70
2018-04-15T14:38:40.316Z,36.10
2018-04-15T14:41:08.499Z,37.63
2018-04-15T14:43:36.639Z,36.35
2018-04-15T14:46:04.810Z,38.20
2018-04-15T14:48:32.969Z,34.70
2018-04-15T14:51:01.981Z,37.92
2018-04-15T14:53:30.072Z,34.15
2018-04-15T14:55:58.300Z,36.35
2018-04-15T14:58:26.433Z,39.70
2018-04-15T15:00:54.615Z,36.92
2018-04-15T15:03:22.759Z,41.15
2018-04-15T15:05:50.924Z,32.85
2018-04-15T15:08:19.080Z,39.53
2018-04-15T15:10:47.399Z,40.65
2018-04-15T15:13:15.555Z,36.50
2018-04-15T15:15:43.775Z,40.65
2018-04-15T15:18:11.973Z,39.63
2018-04-15T15:20:40.137Z,42.33
2018-04-15T15:23:08.296Z,40.05
2018-04-15T15:25:36.460Z,38.60
2018-04-15T15:28:04.602Z,41.37
2018-04-15T15:30:32.773Z,38.28
2018-04-15T15:33:00.912Z,36.05
2018-04-15T15:35:29.083Z,39.78
2018-04-15T15:37:57.225Z,37.22
2018-04-15T15:40:25.395Z,40.03
2018-04-15T15:42:54.310Z,36.90
2018-04-15T15:45:22.543Z,39.75
2018-04-15T15:47:50.685Z,36.25
2018-04-15T15:50:18.878Z,37.20
2018-04-15T15:52:47.025Z,36.70
2018-04-15T15:55:15.217Z,39.47
2018-04-15T15:57:43.355Z,38.47
2018-04-15T16:00:11.552Z,37.08
2018-04-15T16:02:39.705Z,36.65
2018-04-15T16:05:07.939Z,34.65
2018-04-15T16:07:36.848Z,34.22
2018-04-15T16:10:05.060Z,37.92
2018-04-15T16:12:33.199Z,36.20
2018-04-15T16:15:01.368Z,34.85
2018-04-15T16:17:29.504Z,36.92
2018-04-15T16:19:57.668Z,35.70
2018-04-15T16:22:25.809Z,37.17
2018-04-15T16:24:53.973Z,34.00
2018-04-15T16:27:22.112Z,31.65
2018-04-15T16:29:50.274Z,35.63
2018-04-15T16:32:18.419Z,34.97
2018-04-15T16:34:46.585Z,36.90
2018-04-15T16:37:14.733Z,63.60
2018-04-15T16:39:42.958Z,44.58
2018-04-15T16:42:11.105Z,41.28
2018-04-15T16:44:39.240Z,35.17
2018-04-15T16:47:08.172Z,36.70
2018-04-15T16:49:36.332Z,35.47
2018-04-15T16:52:04.508Z,37.65
2018-04-15T16:54:32.650Z,38.60
2018-04-15T16:57:00.834Z,64.55
2018-04-15T16:59:29.740Z,38.13
2018-04-15T17:01:57.899Z,35.92
2018-04-15T17:04:26.046Z,36.28
2018-04-15T17:06:54.211Z,34.88
2018-04-15T17:09:22.351Z,38.30
2018-04-15T17:11:50.517Z,35.88
2018-04-15T17:14:18.670Z,36.33
2018-04-15T17:16:46.881Z,37.30
2018-04-15T17:19:15.082Z,39.13
2018-04-15T17:21:43.228Z,38.10
2018-04-15T17:24:11.437Z,36.78
2018-04-15T17:26:39.604Z,38.70
2018-04-15T17:29:07.750Z,37.63
2018-04-15T17:31:35.923Z,39.17
2018-04-15T17:34:04.082Z,35.95
2018-04-15T17:36:32.283Z,35.33
2018-04-15T17:39:00.460Z,38.10
2018-04-15T17:41:28.641Z,34.35
2018-04-15T17:43:56.828Z,38.45
2018-04-15T17:46:25.003Z,37.88
2018-04-15T17:48:53.194Z,37.20
2018-04-15T17:51:21.447Z,35.35
2018-04-15T17:53:49.627Z,34.08
2018-04-15T17:56:17.820Z,35.53
2018-04-15T17:58:45.980Z,36.97
2018-04-15T18:01:14.152Z,36.10
2018-04-15T18:03:42.309Z,36.72
2018-04-15T18:06:10.489Z,36.00
2018-04-15T18:08:38.664Z,35.97
2018-04-15T18:11:06.876Z,37.10
2018-04-15T18:13:35.062Z,35.92
2018-04-15T18:16:03.279Z,36.17
2018-04-15T18:18:32.965Z,36.00
2018-04-15T18:21:01.135Z,39.30
2018-04-15T18:23:29.416Z,38.45
2018-04-15T18:25:57.639Z,36.42
2018-04-15T18:28:25.801Z,34.75
2018-04-15T18:30:53.971Z,34.45
2018-04-15T18:33:22.109Z,37.83
2018-04-15T18:35:50.300Z,37.67
2018-04-15T18:38:18.445Z,37.38
2018-04-15T18:40:46.594Z,37.58
2018-04-15T18:43:15.526Z,35.60
2018-04-15T18:45:43.677Z,35.63
2018-04-15T18:48:11.844Z,38.30
2018-04-15T18:50:39.992Z,38.83
2018-04-15T18:53:08.271Z,38.70
2018-04-15T18:55:37.184Z,35.97
2018-04-15T18:58:05.359Z,38.25
2018-04-15T19:00:33.568Z,38.92
2018-04-15T19:03:01.767Z,36.42
2018-04-15T19:05:29.907Z,38.03
2018-04-15T19:07:58.095Z,39.25
2018-04-15T19:10:26.248Z,36.80
2018-04-15T19:12:54.516Z,40.53
2018-04-15T19:15:22.697Z,37.88
2018-04-15T19:17:50.877Z,37.10
2018-04-15T19:20:19.033Z,38.63
2018-04-15T19:22:47.268Z,39.13
2018-04-15T19:25:15.496Z,37.38
2018-04-15T19:27:43.705Z,39.60
2018-04-15T19:30:11.871Z,37.30
2018-04-15T19:32:40.012Z,35.05
2018-04-15T19:35:08.274Z,38.63
2018-04-15T19:37:36.379Z,37.72
2018-04-15T19:40:04.533Z,37.17
2018-04-15T19:42:32.704Z,32.83
2018-04-15T19:45:00.848Z,37.63
2018-04-15T19:47:29.781Z,34.78
2018-04-15T19:49:57.922Z,35.80
2018-04-15T19:52:26.080Z,37.05
2018-04-15T19:54:54.219Z,34.40
2018-04-15T19:57:22.383Z,36.00
2018-04-15T19:59:50.529Z,33.63
2018-04-15T20:02:18.705Z,37.28
2018-04-15T20:04:46.861Z,36.92
2018-04-15T20:07:15.843Z,36.50
2018-04-15T20:09:44.016Z,37.85
2018-04-15T20:12:12.180Z,37.15
2018-04-15T20:14:40.356Z,35.75
2018-04-15T20:17:08.554Z,35.10
2018-04-15T20:19:36.755Z,37.85
2018-04-15T20:22:04.932Z,36.47
2018-04-15T20:24:33.080Z,35.13
2018-04-15T20:27:01.259Z,37.97
2018-04-15T20:29:29.433Z,35.83
2018-04-15T20:31:57.601Z,39.35
2018-04-15T20:34:25.751Z,38.78
2018-04-15T20:36:53.937Z,37.42
2018-04-15T20:39:22.915Z,36.17
2018-04-15T20:41:51.060Z,38.20
2018-04-15T20:44:19.246Z,37.33
2018-04-15T20:46:47.407Z,38.72
2018-04-15T20:49:15.597Z,38.03
2018-04-15T20:51:43.762Z,34.78
2018-04-15T20:54:11.961Z,37.08
2018-04-15T20:56:40.215Z,39.38
2018-04-15T20:59:08.394Z,38.08
2018-04-15T21:01:36.557Z,37.80
2018-04-15T21:04:04.712Z,38.45
2018-04-15T21:06:32.856Z,39.70
2018-04-15T21:09:01.488Z,33.50
2018-04-15T21:11:30.391Z,39.08
2018-04-15T21:13:58.559Z,37.67
2018-04-15T21:16:26.715Z,36.25
2018-04-15T21:18:54.928Z,37.20
2018-04-15T21:21:23.060Z,43.53
2018-04-15T21:23:51.216Z,40.33
2018-04-15T21:26:19.357Z,34.75
2018-04-15T21:28:48.292Z,34.70
2018-04-15T21:31:16.424Z,35.88
2018-04-15T21:33:45.349Z,36.95
2018-04-15T21:36:13.490Z,36.40
2018-04-15T21:38:42.411Z,33.63
2018-04-15T21:41:10.550Z,33.20
2018-04-15T21:43:38.712Z,34.15
2018-04-15T21:46:06.843Z,34.03
2018-04-15T21:48:35.008Z,36.33
2018-04-15T21:51:03.168Z,40.50
2018-04-15T21:53:31.365Z,38.58
2018-04-15T21:55:59.506Z,38.60
2018-04-15T21:58:27.684Z,39.03
2018-04-15T22:00:56.580Z,43.38
2018-04-15T22:03:24.731Z,38.25
2018-04-15T22:05:53.640Z,38.28
2018-04-15T22:08:21.804Z,37.13
2018-04-15T22:10:50.697Z,37.75
2018-04-15T22:13:18.859Z,35.72
2018-04-15T22:15:47.800Z,34.67
2018-04-15T22:18:15.963Z,38.15
2018-04-15T22:20:44.097Z,35.30
2018-04-15T22:23:12.260Z,33.60
2018-04-15T22:25:40.398Z,36.78
2018-04-15T22:28:08.556Z,34.85
2018-04-15T22:30:36.696Z,33.67
2018-04-15T22:33:04.852Z,34.33
2018-04-15T22:35:32.983Z,35.65
2018-04-15T22:38:01.140Z,35.67
2018-04-15T22:40:29.269Z,33.63
2018-04-15T22:42:57.406Z,32.10
2018-04-15T22:45:25.589Z,32.58
2018-04-15T22:47:59.272Z,34.67
2018-04-15T22:50:32.994Z,32.97
2018-04-15T22:53:01.129Z,34.97
2018-04-15T22:55:29.288Z,35.15
2018-04-15T22:57:58.183Z,35.78
2018-04-15T23:00:26.336Z,34.38
2018-04-15T23:02:54.476Z,34.30
2018-04-15T23:05:22.637Z,33.80
2018-04-15T23:07:50.768Z,32.80
2018-04-15T23:10:18.925Z,36.20
2018-04-15T23:12:47.068Z,34.05
2018-04-15T23:15:15.233Z,33.10
2018-04-15T23:17:43.367Z,33.42
2018-04-15T23:20:11.534Z,31.52
2018-04-15T23:22:39.668Z,36.15
2018-04-15T23:25:07.832Z,33.92
2018-04-15T23:27:35.968Z,35.05
2018-04-15T23:30:04.128Z,32.78
2018-04-15T23:32:32.264Z,34.03
2018-04-15T23:35:00.421Z,38.42
2018-04-15T23:37:28.556Z,34.78
2018-04-15T23:39:56.716Z,34.92
2018-04-15T23:42:24.847Z,33.25
2018-04-15T23:44:53.005Z,33.10
2018-04-15T23:47:21.136Z,33.80
2018-04-15T23:49:49.295Z,32.50
2018-04-15T23:52:17.427Z,36.17
2018-04-15T23:57:19.945Z,34.60
2018-04-15T23:59:48.100Z,34.17
